DKH715 ZULS-ZPPP
Flight info
| Callsign | DKH715 |
|---|---|
| Flight time | 2h 25m |
| Altitude | 37100 |
| Route | DUMIX28 DUMIX W261 UGPIT Y3 ENPAT W260 BIGOR L888 UPGED W162 BUBSU W146 GULOT GULOT2B |
| Aircraft | A20N/M-SDE2E3FGHIRWXY/LB1 |
Departure
| Time | 2026-04-21 05:23 |
|---|---|
| Airport | Lhasa Gonggar International Airport (ZULS) |
Arrival
| Time | 2026-04-21 07:48 |
|---|---|
| Airport | Kunming Changshui International Airport (ZPPP) |
| Time | Latitude | Longitude | Altitude | Speed | Heading |
|---|---|---|---|---|---|
| 2026-04-21 04:57 | 29.29361 | 90.89666 | 11511 ft | 0 kts | 180° |
| 2026-04-21 05:08 | 29.29364 | 90.89666 | 11498 ft | 2 kts | 180° |
| 2026-04-21 05:08 | 29.29378 | 90.89666 | 11493 ft | 2 kts | 180° |
| 2026-04-21 05:09 | 29.29391 | 90.89667 | 11491 ft | 2 kts | 181° |
| 2026-04-21 05:09 | 29.29404 | 90.89667 | 11503 ft | 2 kts | 182° |
| 2026-04-21 05:09 | 29.29420 | 90.89668 | 11492 ft | 2 kts | 182° |
| 2026-04-21 05:09 | 29.29436 | 90.89669 | 11501 ft | 2 kts | 193° |
| 2026-04-21 05:10 | 29.29450 | 90.89677 | 11495 ft | 2 kts | 266° |
| 2026-04-21 05:10 | 29.29450 | 90.89681 | 11495 ft | 0 kts | 270° |
| 2026-04-21 05:12 | 29.29450 | 90.89679 | 11495 ft | 2 kts | 270° |
| 2026-04-21 05:12 | 29.29451 | 90.89645 | 11496 ft | 8 kts | 270° |
| 2026-04-21 05:13 | 29.29449 | 90.89552 | 11504 ft | 13 kts | 269° |
| 2026-04-21 05:13 | 29.29447 | 90.89448 | 11493 ft | 13 kts | 268° |
| 2026-04-21 05:13 | 29.29445 | 90.89342 | 11504 ft | 13 kts | 269° |
| 2026-04-21 05:13 | 29.29449 | 90.89248 | 11498 ft | 10 kts | 287° |
| 2026-04-21 05:14 | 29.29502 | 90.89202 | 11491 ft | 10 kts | 340° |
| 2026-04-21 05:14 | 29.29573 | 90.89196 | 11500 ft | 11 kts | 359° |
| 2026-04-21 05:14 | 29.29612 | 90.89249 | 11501 ft | 10 kts | 86° |
| 2026-04-21 05:14 | 29.29614 | 90.89358 | 11507 ft | 21 kts | 89° |
| 2026-04-21 05:15 | 29.29616 | 90.89534 | 11505 ft | 22 kts | 89° |
| 2026-04-21 05:15 | 29.29618 | 90.89709 | 11507 ft | 22 kts | 89° |
| 2026-04-21 05:15 | 29.29621 | 90.89882 | 11494 ft | 22 kts | 89° |
| 2026-04-21 05:15 | 29.29624 | 90.90053 | 11499 ft | 21 kts | 88° |
| 2026-04-21 05:16 | 29.29626 | 90.90232 | 11496 ft | 24 kts | 89° |
| 2026-04-21 05:16 | 29.29630 | 90.90428 | 11504 ft | 25 kts | 89° |
| 2026-04-21 05:16 | 29.29632 | 90.90559 | 11505 ft | 25 kts | 89° |
| 2026-04-21 05:16 | 29.29636 | 90.90819 | 11497 ft | 24 kts | 89° |
| 2026-04-21 05:17 | 29.29638 | 90.91009 | 11502 ft | 24 kts | 89° |
| 2026-04-21 05:17 | 29.29641 | 90.91196 | 11501 ft | 23 kts | 89° |
| 2026-04-21 05:17 | 29.29644 | 90.91374 | 11500 ft | 22 kts | 89° |
| 2026-04-21 05:17 | 29.29647 | 90.91551 | 11500 ft | 22 kts | 89° |
| 2026-04-21 05:18 | 29.29650 | 90.91724 | 11486 ft | 22 kts | 89° |
| 2026-04-21 05:18 | 29.29651 | 90.91840 | 11489 ft | 22 kts | 89° |
| 2026-04-21 05:18 | 29.29654 | 90.92021 | 11499 ft | 24 kts | 89° |
| 2026-04-21 05:18 | 29.29657 | 90.92216 | 11498 ft | 25 kts | 89° |
| 2026-04-21 05:19 | 29.29660 | 90.92415 | 11489 ft | 25 kts | 89° |
| 2026-04-21 05:19 | 29.29663 | 90.92610 | 11497 ft | 24 kts | 89° |
| 2026-04-21 05:19 | 29.29665 | 90.92802 | 11497 ft | 24 kts | 88° |
| 2026-04-21 05:19 | 29.29669 | 90.92989 | 11497 ft | 23 kts | 88° |
| 2026-04-21 05:20 | 29.29672 | 90.93161 | 11496 ft | 9 kts | 89° |
| 2026-04-21 05:20 | 29.29672 | 90.93165 | 11495 ft | 1 kts | 89° |
| 2026-04-21 05:20 | 29.29673 | 90.93201 | 11496 ft | 8 kts | 89° |
| 2026-04-21 05:20 | 29.29694 | 90.93259 | 11498 ft | 9 kts | 34° |
| 2026-04-21 05:21 | 29.29760 | 90.93270 | 11489 ft | 11 kts | 357° |
| 2026-04-21 05:21 | 29.29832 | 90.93249 | 11491 ft | 11 kts | 312° |
| 2026-04-21 05:21 | 29.29836 | 90.93168 | 11486 ft | 11 kts | 270° |
| 2026-04-21 05:21 | 29.29835 | 90.92977 | 11486 ft | 49 kts | 268° |
| 2026-04-21 05:22 | 29.29822 | 90.92374 | 11492 ft | 100 kts | 268° |
| 2026-04-21 05:22 | 29.29808 | 90.91407 | 11501 ft | 141 kts | 269° |
| 2026-04-21 05:22 | 29.29787 | 90.90173 | 11528 ft | 170 kts | 268° |
| 2026-04-21 05:22 | 29.29763 | 90.88813 | 11869 ft | 173 kts | 267° |
| 2026-04-21 05:23 | 29.29741 | 90.87405 | 12179 ft | 178 kts | 268° |
| 2026-04-21 05:23 | 29.29724 | 90.85993 | 12747 ft | 177 kts | 269° |
| 2026-04-21 05:23 | 29.29678 | 90.84588 | 13288 ft | 180 kts | 260° |
| 2026-04-21 05:23 | 29.29304 | 90.83185 | 13550 ft | 194 kts | 244° |
| 2026-04-21 05:24 | 29.28792 | 90.81687 | 13692 ft | 210 kts | 258° |
| 2026-04-21 05:24 | 29.28717 | 90.79956 | 13813 ft | 227 kts | 277° |
| 2026-04-21 05:24 | 29.29209 | 90.78170 | 14000 ft | 245 kts | 298° |
| 2026-04-21 05:24 | 29.30336 | 90.76638 | 14151 ft | 260 kts | 322° |
| 2026-04-21 05:25 | 29.31984 | 90.75687 | 14431 ft | 272 kts | 344° |
| 2026-04-21 05:25 | 29.33866 | 90.75501 | 15058 ft | 273 kts | 5° |
| 2026-04-21 05:25 | 29.35744 | 90.76086 | 15468 ft | 290 kts | 28° |
| 2026-04-21 05:25 | 29.37280 | 90.77570 | 16114 ft | 288 kts | 57° |
| 2026-04-21 05:26 | 29.38095 | 90.79616 | 16777 ft | 287 kts | 80° |
| 2026-04-21 05:26 | 29.38110 | 90.81921 | 17117 ft | 296 kts | 106° |
| 2026-04-21 05:26 | 29.37520 | 90.84198 | 17541 ft | 306 kts | 111° |
| 2026-04-21 05:26 | 29.36943 | 90.86645 | 17625 ft | 329 kts | 96° |
| 2026-04-21 05:27 | 29.37144 | 90.89309 | 17781 ft | 346 kts | 73° |
| 2026-04-21 05:27 | 29.38212 | 90.91808 | 18149 ft | 352 kts | 53° |
| 2026-04-21 05:27 | 29.39831 | 90.93921 | 18708 ft | 352 kts | 40° |
| 2026-04-21 05:27 | 29.41808 | 90.95588 | 19183 ft | 353 kts | 27° |
| 2026-04-21 05:28 | 29.44055 | 90.96701 | 19652 ft | 352 kts | 13° |
| 2026-04-21 05:28 | 29.46428 | 90.97187 | 20133 ft | 350 kts | 359° |
| 2026-04-21 05:28 | 29.48869 | 90.97264 | 20649 ft | 352 kts | 0° |
| 2026-04-21 05:28 | 29.51315 | 90.97571 | 21131 ft | 356 kts | 6° |
| 2026-04-21 05:29 | 29.53752 | 90.98190 | 21600 ft | 362 kts | 13° |
| 2026-04-21 05:29 | 29.56148 | 90.99132 | 22069 ft | 367 kts | 19° |
| 2026-04-21 05:29 | 29.58457 | 91.00429 | 22531 ft | 372 kts | 28° |
| 2026-04-21 05:29 | 29.60569 | 91.02204 | 22991 ft | 378 kts | 39° |
| 2026-04-21 05:30 | 29.62385 | 91.04414 | 23411 ft | 384 kts | 50° |
| 2026-04-21 05:30 | 29.63843 | 91.07017 | 23767 ft | 389 kts | 62° |
| 2026-04-21 05:30 | 29.64866 | 91.09910 | 24120 ft | 393 kts | 73° |
| 2026-04-21 05:30 | 29.65410 | 91.12996 | 24477 ft | 396 kts | 85° |
| 2026-04-21 05:31 | 29.65445 | 91.16166 | 24830 ft | 398 kts | 96° |
| 2026-04-21 05:31 | 29.65315 | 91.19375 | 25024 ft | 408 kts | 90° |
| 2026-04-21 05:31 | 29.65436 | 91.22635 | 25129 ft | 419 kts | 85° |
| 2026-04-21 05:31 | 29.65817 | 91.26007 | 25234 ft | 430 kts | 80° |
| 2026-04-21 05:32 | 29.66467 | 91.29405 | 25342 ft | 441 kts | 74° |
| 2026-04-21 05:32 | 29.67402 | 91.32813 | 25459 ft | 451 kts | 69° |
| 2026-04-21 05:32 | 29.68488 | 91.36237 | 25607 ft | 460 kts | 69° |
| 2026-04-21 05:32 | 29.69583 | 91.39710 | 25972 ft | 463 kts | 70° |
| 2026-04-21 05:33 | 29.70677 | 91.43198 | 26358 ft | 465 kts | 70° |
| 2026-04-21 05:33 | 29.71775 | 91.46711 | 26715 ft | 467 kts | 70° |
| 2026-04-21 05:33 | 29.72877 | 91.50245 | 27031 ft | 471 kts | 70° |
| 2026-04-21 05:33 | 29.73990 | 91.53803 | 27369 ft | 474 kts | 70° |
| 2026-04-21 05:34 | 29.74892 | 91.56669 | 27660 ft | 475 kts | 70° |
| 2026-04-21 05:34 | 29.76006 | 91.60210 | 28038 ft | 477 kts | 69° |
| 2026-04-21 05:34 | 29.77140 | 91.63819 | 28327 ft | 482 kts | 70° |
| 2026-04-21 05:34 | 29.78295 | 91.67503 | 28625 ft | 485 kts | 70° |
| 2026-04-21 05:35 | 29.79417 | 91.71121 | 28953 ft | 487 kts | 72° |
| 2026-04-21 05:35 | 29.80153 | 91.74923 | 29246 ft | 488 kts | 84° |
| 2026-04-21 05:35 | 29.80229 | 91.78835 | 29447 ft | 490 kts | 97° |
| 2026-04-21 05:35 | 29.79776 | 91.82727 | 29710 ft | 492 kts | 101° |
| 2026-04-21 05:36 | 29.79225 | 91.86618 | 30014 ft | 493 kts | 101° |
| 2026-04-21 05:36 | 29.78670 | 91.90533 | 30195 ft | 497 kts | 101° |
| 2026-04-21 05:36 | 29.78129 | 91.94483 | 30418 ft | 500 kts | 101° |
| 2026-04-21 05:36 | 29.77602 | 91.98450 | 30645 ft | 504 kts | 101° |
| 2026-04-21 05:37 | 29.77078 | 92.02457 | 30898 ft | 506 kts | 101° |
| 2026-04-21 05:37 | 29.76553 | 92.06479 | 31141 ft | 509 kts | 101° |
| 2026-04-21 05:37 | 29.76026 | 92.10512 | 31383 ft | 510 kts | 101° |
| 2026-04-21 05:37 | 29.75504 | 92.14510 | 31666 ft | 511 kts | 101° |
| 2026-04-21 05:38 | 29.74974 | 92.18557 | 31928 ft | 512 kts | 101° |
| 2026-04-21 05:38 | 29.74441 | 92.22618 | 32202 ft | 513 kts | 101° |
| 2026-04-21 05:38 | 29.73904 | 92.26686 | 32445 ft | 514 kts | 101° |
| 2026-04-21 05:38 | 29.73364 | 92.30768 | 32650 ft | 516 kts | 101° |
| 2026-04-21 05:39 | 29.72822 | 92.34862 | 32916 ft | 516 kts | 101° |
| 2026-04-21 05:39 | 29.72279 | 92.38952 | 33189 ft | 517 kts | 101° |
| 2026-04-21 05:39 | 29.71735 | 92.43042 | 33428 ft | 517 kts | 101° |
| 2026-04-21 05:39 | 29.71188 | 92.47138 | 33653 ft | 518 kts | 101° |
| 2026-04-21 05:40 | 29.70645 | 92.51191 | 33877 ft | 519 kts | 101° |
| 2026-04-21 05:40 | 29.70096 | 92.55295 | 34085 ft | 520 kts | 101° |
| 2026-04-21 05:40 | 29.69542 | 92.59415 | 34258 ft | 520 kts | 101° |
| 2026-04-21 05:40 | 29.68988 | 92.63538 | 34443 ft | 521 kts | 101° |
| 2026-04-21 05:41 | 29.68430 | 92.67667 | 34588 ft | 523 kts | 101° |
| 2026-04-21 05:41 | 29.67870 | 92.71808 | 34774 ft | 524 kts | 101° |
| 2026-04-21 05:41 | 29.67309 | 92.75942 | 34952 ft | 525 kts | 102° |
| 2026-04-21 05:41 | 29.66743 | 92.80101 | 35098 ft | 526 kts | 102° |
| 2026-04-21 05:42 | 29.66176 | 92.84260 | 35260 ft | 527 kts | 102° |
| 2026-04-21 05:42 | 29.65608 | 92.88420 | 35419 ft | 526 kts | 101° |
| 2026-04-21 05:42 | 29.65045 | 92.92535 | 35525 ft | 528 kts | 102° |
| 2026-04-21 05:42 | 29.64471 | 92.96714 | 35646 ft | 530 kts | 102° |
| 2026-04-21 05:43 | 29.63895 | 93.00892 | 35798 ft | 530 kts | 102° |
| 2026-04-21 05:43 | 29.63317 | 93.05085 | 35972 ft | 530 kts | 102° |
| 2026-04-21 05:43 | 29.62737 | 93.09274 | 36132 ft | 532 kts | 102° |
| 2026-04-21 05:43 | 29.62153 | 93.13481 | 36279 ft | 532 kts | 102° |
| 2026-04-21 05:44 | 29.61569 | 93.17682 | 36484 ft | 533 kts | 103° |
| 2026-04-21 05:44 | 29.60985 | 93.21885 | 36666 ft | 533 kts | 102° |
| 2026-04-21 05:44 | 29.60396 | 93.26105 | 36819 ft | 535 kts | 102° |
| 2026-04-21 05:44 | 29.59806 | 93.30328 | 36992 ft | 535 kts | 103° |
| 2026-04-21 05:45 | 29.58622 | 93.38737 | 37056 ft | 533 kts | 103° |
| 2026-04-21 05:45 | 29.57429 | 93.47170 | 37053 ft | 535 kts | 103° |
| 2026-04-21 05:46 | 29.56236 | 93.55578 | 37059 ft | 537 kts | 103° |
| 2026-04-21 05:46 | 29.55038 | 93.64009 | 37053 ft | 535 kts | 103° |
| 2026-04-21 05:47 | 29.53827 | 93.72458 | 37044 ft | 531 kts | 103° |
| 2026-04-21 05:47 | 29.52614 | 93.80874 | 37044 ft | 537 kts | 103° |
| 2026-04-21 05:48 | 29.51389 | 93.89340 | 37050 ft | 537 kts | 104° |
| 2026-04-21 05:48 | 29.50166 | 93.97784 | 37040 ft | 535 kts | 104° |
| 2026-04-21 05:49 | 29.48935 | 94.06232 | 37036 ft | 536 kts | 104° |
| 2026-04-21 05:49 | 29.47702 | 94.14631 | 37047 ft | 538 kts | 104° |
| 2026-04-21 05:50 | 29.46457 | 94.23096 | 36990 ft | 537 kts | 104° |
| 2026-04-21 05:50 | 29.45214 | 94.31520 | 37044 ft | 536 kts | 105° |
| 2026-04-21 05:51 | 29.43960 | 94.39966 | 37061 ft | 538 kts | 104° |
| 2026-04-21 05:51 | 29.43660 | 94.48600 | 37048 ft | 544 kts | 87° |
| 2026-04-21 05:52 | 29.44760 | 94.57165 | 37058 ft | 547 kts | 82° |
| 2026-04-21 05:52 | 29.45984 | 94.65755 | 37067 ft | 545 kts | 82° |
| 2026-04-21 05:53 | 29.47197 | 94.74397 | 37064 ft | 549 kts | 82° |
| 2026-04-21 05:53 | 29.48407 | 94.83048 | 37077 ft | 547 kts | 82° |
| 2026-04-21 05:54 | 29.49604 | 94.91627 | 37102 ft | 540 kts | 82° |
| 2026-04-21 05:54 | 29.50785 | 95.00190 | 37080 ft | 543 kts | 82° |
| 2026-04-21 05:55 | 29.51967 | 95.08766 | 37016 ft | 543 kts | 83° |
| 2026-04-21 05:55 | 29.53138 | 95.17287 | 37036 ft | 545 kts | 83° |
| 2026-04-21 05:56 | 29.54319 | 95.25926 | 37047 ft | 550 kts | 83° |
| 2026-04-21 05:56 | 29.55503 | 95.34615 | 37045 ft | 552 kts | 83° |
| 2026-04-21 05:57 | 29.56675 | 95.43344 | 37047 ft | 549 kts | 83° |
| 2026-04-21 05:57 | 29.57848 | 95.52019 | 37053 ft | 552 kts | 83° |
| 2026-04-21 05:58 | 29.59019 | 95.60750 | 37059 ft | 554 kts | 83° |
| 2026-04-21 05:58 | 29.59599 | 95.65146 | 37398 ft | 555 kts | 83° |
| 2026-04-21 05:58 | 29.60186 | 95.69505 | 37713 ft | 551 kts | 83° |
| 2026-04-21 05:59 | 29.60766 | 95.73805 | 37610 ft | 551 kts | 83° |
| 2026-04-21 05:59 | 29.61347 | 95.78157 | 37358 ft | 550 kts | 83° |
| 2026-04-21 05:59 | 29.61915 | 95.82495 | 37137 ft | 546 kts | 83° |
| 2026-04-21 06:00 | 29.63041 | 95.91164 | 37091 ft | 548 kts | 83° |
| 2026-04-21 06:00 | 29.64169 | 95.99829 | 37118 ft | 550 kts | 83° |
| 2026-04-21 06:01 | 29.65306 | 96.08569 | 37118 ft | 553 kts | 83° |
| 2026-04-21 06:01 | 29.66432 | 96.17268 | 37124 ft | 552 kts | 83° |
| 2026-04-21 06:02 | 29.67556 | 96.26002 | 37101 ft | 553 kts | 83° |
| 2026-04-21 06:02 | 29.68672 | 96.34766 | 37144 ft | 555 kts | 83° |
| 2026-04-21 06:03 | 29.69787 | 96.43504 | 37126 ft | 555 kts | 83° |
| 2026-04-21 06:03 | 29.70897 | 96.52239 | 37094 ft | 552 kts | 83° |
| 2026-04-21 06:04 | 29.71997 | 96.60996 | 37097 ft | 553 kts | 83° |
| 2026-04-21 06:04 | 29.73091 | 96.69730 | 37111 ft | 554 kts | 83° |
| 2026-04-21 06:05 | 29.73999 | 96.77038 | 37079 ft | 553 kts | 83° |
| 2026-04-21 06:05 | 29.75089 | 96.85810 | 37074 ft | 554 kts | 83° |
| 2026-04-21 06:06 | 29.76346 | 96.96007 | 37034 ft | 553 kts | 83° |
| 2026-04-21 06:06 | 29.77421 | 97.04809 | 37004 ft | 555 kts | 83° |
| 2026-04-21 06:07 | 29.78316 | 97.12143 | 36970 ft | 556 kts | 83° |
| 2026-04-21 06:07 | 29.79383 | 97.20940 | 36939 ft | 555 kts | 84° |
| 2026-04-21 06:08 | 29.80434 | 97.29689 | 36934 ft | 555 kts | 84° |
| 2026-04-21 06:08 | 29.81493 | 97.38512 | 36921 ft | 555 kts | 83° |
| 2026-04-21 06:09 | 29.82544 | 97.47332 | 36902 ft | 556 kts | 83° |
| 2026-04-21 06:09 | 29.83590 | 97.56163 | 36885 ft | 558 kts | 84° |
| 2026-04-21 06:10 | 29.84629 | 97.64976 | 36888 ft | 555 kts | 84° |
| 2026-04-21 06:10 | 29.85660 | 97.73780 | 36889 ft | 555 kts | 84° |
| 2026-04-21 06:11 | 29.86687 | 97.82611 | 36878 ft | 556 kts | 84° |
| 2026-04-21 06:11 | 29.87707 | 97.91443 | 36901 ft | 556 kts | 84° |
| 2026-04-21 06:12 | 29.88720 | 98.00232 | 36907 ft | 544 kts | 84° |
| 2026-04-21 06:12 | 29.89707 | 98.08922 | 36884 ft | 547 kts | 84° |
| 2026-04-21 06:13 | 29.90710 | 98.17695 | 36843 ft | 556 kts | 84° |
| 2026-04-21 06:13 | 29.91705 | 98.26482 | 36903 ft | 553 kts | 84° |
| 2026-04-21 06:14 | 29.92693 | 98.35299 | 36854 ft | 555 kts | 84° |
| 2026-04-21 06:14 | 29.93682 | 98.44143 | 36841 ft | 557 kts | 84° |
| 2026-04-21 06:15 | 29.94663 | 98.53000 | 36847 ft | 557 kts | 84° |
| 2026-04-21 06:15 | 29.95637 | 98.61852 | 36837 ft | 556 kts | 84° |
| 2026-04-21 06:16 | 29.96611 | 98.70729 | 36834 ft | 557 kts | 84° |
| 2026-04-21 06:16 | 29.97576 | 98.79577 | 36839 ft | 556 kts | 84° |
| 2026-04-21 06:17 | 29.98526 | 98.88378 | 36840 ft | 556 kts | 84° |
| 2026-04-21 06:17 | 29.99481 | 98.97276 | 36822 ft | 560 kts | 84° |
| 2026-04-21 06:18 | 30.00434 | 99.06158 | 36843 ft | 559 kts | 84° |
| 2026-04-21 06:18 | 30.02307 | 99.14856 | 36862 ft | 557 kts | 69° |
| 2026-04-21 06:19 | 30.04892 | 99.23248 | 36862 ft | 554 kts | 69° |
| 2026-04-21 06:19 | 30.07459 | 99.31649 | 36877 ft | 556 kts | 69° |
| 2026-04-21 06:20 | 30.10005 | 99.40016 | 36887 ft | 554 kts | 69° |
| 2026-04-21 06:20 | 30.12565 | 99.48463 | 36918 ft | 553 kts | 69° |
| 2026-04-21 06:21 | 30.15101 | 99.56833 | 36889 ft | 552 kts | 69° |
| 2026-04-21 06:21 | 30.17641 | 99.65252 | 36904 ft | 554 kts | 69° |
| 2026-04-21 06:22 | 30.20050 | 99.73646 | 36891 ft | 554 kts | 77° |
| 2026-04-21 06:22 | 30.20610 | 99.78051 | 36884 ft | 553 kts | 89° |
| 2026-04-21 06:22 | 30.20495 | 99.82490 | 36879 ft | 549 kts | 102° |
| 2026-04-21 06:22 | 30.19719 | 99.86776 | 36871 ft | 541 kts | 114° |
| 2026-04-21 06:23 | 30.18325 | 99.90759 | 36866 ft | 529 kts | 126° |
| 2026-04-21 06:23 | 30.16377 | 99.94302 | 36860 ft | 514 kts | 139° |
| 2026-04-21 06:23 | 30.13979 | 99.97262 | 36856 ft | 497 kts | 150° |
| 2026-04-21 06:23 | 30.11231 | 99.99562 | 36846 ft | 479 kts | 163° |
| 2026-04-21 06:24 | 30.08269 | 100.01119 | 36860 ft | 458 kts | 175° |
| 2026-04-21 06:24 | 30.05241 | 100.01899 | 36858 ft | 436 kts | 187° |
| 2026-04-21 06:24 | 30.02292 | 100.01906 | 36859 ft | 413 kts | 200° |
| 2026-04-21 06:25 | 29.96749 | 100.00640 | 36865 ft | 409 kts | 201° |
| 2026-04-21 06:25 | 29.91034 | 100.00032 | 36866 ft | 420 kts | 194° |
| 2026-04-21 06:26 | 29.85143 | 99.99955 | 36871 ft | 425 kts | 193° |
| 2026-04-21 06:26 | 29.79224 | 99.99976 | 36877 ft | 425 kts | 193° |
| 2026-04-21 06:27 | 29.73313 | 99.99988 | 36871 ft | 425 kts | 193° |
| 2026-04-21 06:27 | 29.67396 | 99.99990 | 36870 ft | 425 kts | 193° |
| 2026-04-21 06:28 | 29.61513 | 99.99992 | 36873 ft | 425 kts | 193° |
| 2026-04-21 06:28 | 29.55582 | 99.99992 | 36871 ft | 425 kts | 192° |
| 2026-04-21 06:29 | 29.49654 | 99.99992 | 36876 ft | 426 kts | 192° |
| 2026-04-21 06:29 | 29.43720 | 99.99990 | 36882 ft | 428 kts | 192° |
| 2026-04-21 06:30 | 29.37776 | 99.99991 | 36878 ft | 426 kts | 192° |
| 2026-04-21 06:30 | 29.31851 | 99.99992 | 36885 ft | 426 kts | 192° |
| 2026-04-21 06:31 | 29.25927 | 99.99996 | 36885 ft | 426 kts | 192° |
| 2026-04-21 06:31 | 29.19982 | 99.99996 | 36877 ft | 429 kts | 192° |
| 2026-04-21 06:32 | 29.14014 | 99.99998 | 36871 ft | 428 kts | 192° |
| 2026-04-21 06:32 | 29.08038 | 99.99994 | 36870 ft | 431 kts | 192° |
| 2026-04-21 06:33 | 29.02082 | 99.99995 | 36876 ft | 430 kts | 191° |
| 2026-04-21 06:33 | 28.96112 | 99.99995 | 36885 ft | 431 kts | 191° |
| 2026-04-21 06:34 | 28.90103 | 99.99992 | 36877 ft | 432 kts | 191° |
| 2026-04-21 06:34 | 28.84086 | 99.99995 | 36892 ft | 433 kts | 191° |
| 2026-04-21 06:35 | 28.78059 | 99.99996 | 36901 ft | 433 kts | 190° |
| 2026-04-21 06:35 | 28.72009 | 99.99995 | 36913 ft | 434 kts | 190° |
| 2026-04-21 06:36 | 28.65998 | 99.99993 | 36907 ft | 436 kts | 190° |
| 2026-04-21 06:36 | 28.59915 | 99.99993 | 36924 ft | 437 kts | 190° |
| 2026-04-21 06:37 | 28.53810 | 99.99992 | 36931 ft | 438 kts | 190° |
| 2026-04-21 06:37 | 28.47712 | 99.99990 | 36932 ft | 439 kts | 189° |
| 2026-04-21 06:38 | 28.41596 | 99.99986 | 36949 ft | 441 kts | 189° |
| 2026-04-21 06:38 | 28.35492 | 99.99990 | 36943 ft | 440 kts | 189° |
| 2026-04-21 06:39 | 28.29357 | 99.99990 | 36961 ft | 441 kts | 189° |
| 2026-04-21 06:39 | 28.23208 | 99.99991 | 36969 ft | 442 kts | 189° |
| 2026-04-21 06:40 | 28.17036 | 99.99990 | 36959 ft | 443 kts | 189° |
| 2026-04-21 06:40 | 28.10868 | 99.99993 | 36952 ft | 442 kts | 189° |
| 2026-04-21 06:41 | 28.04760 | 99.99995 | 36958 ft | 444 kts | 189° |
| 2026-04-21 06:41 | 27.98569 | 99.99996 | 36954 ft | 444 kts | 189° |
| 2026-04-21 06:42 | 27.92383 | 99.99996 | 36959 ft | 445 kts | 189° |
| 2026-04-21 06:42 | 27.86167 | 99.99995 | 36958 ft | 446 kts | 189° |
| 2026-04-21 06:43 | 27.79978 | 100.00002 | 36958 ft | 444 kts | 189° |
| 2026-04-21 06:43 | 27.73782 | 100.00002 | 36952 ft | 444 kts | 189° |
| 2026-04-21 06:44 | 27.67646 | 100.00000 | 36964 ft | 445 kts | 189° |
| 2026-04-21 06:44 | 27.61438 | 99.99997 | 36956 ft | 446 kts | 189° |
| 2026-04-21 06:45 | 27.55242 | 99.99999 | 36958 ft | 445 kts | 189° |
| 2026-04-21 06:45 | 27.49038 | 100.00000 | 36961 ft | 446 kts | 189° |
| 2026-04-21 06:46 | 27.42821 | 99.99999 | 36964 ft | 447 kts | 189° |
| 2026-04-21 06:46 | 27.36592 | 99.99999 | 36958 ft | 447 kts | 189° |
| 2026-04-21 06:47 | 27.30383 | 100.00001 | 36964 ft | 446 kts | 189° |
| 2026-04-21 06:47 | 27.24174 | 99.99999 | 36964 ft | 446 kts | 189° |
| 2026-04-21 06:48 | 27.17948 | 99.99999 | 36960 ft | 448 kts | 189° |
| 2026-04-21 06:48 | 27.11708 | 99.99999 | 36951 ft | 448 kts | 189° |
| 2026-04-21 06:49 | 27.05502 | 99.99998 | 36942 ft | 449 kts | 189° |
| 2026-04-21 06:49 | 26.99253 | 99.99999 | 36940 ft | 449 kts | 189° |
| 2026-04-21 06:50 | 26.93008 | 100.00000 | 36929 ft | 448 kts | 189° |
| 2026-04-21 06:50 | 26.86789 | 100.00000 | 36933 ft | 448 kts | 189° |
| 2026-04-21 06:51 | 26.80546 | 99.99996 | 36933 ft | 449 kts | 188° |
| 2026-04-21 06:51 | 26.74281 | 99.99997 | 36927 ft | 450 kts | 188° |
| 2026-04-21 06:52 | 26.68018 | 99.99999 | 36918 ft | 449 kts | 188° |
| 2026-04-21 06:52 | 26.61800 | 100.00000 | 36913 ft | 449 kts | 188° |
| 2026-04-21 06:53 | 26.55534 | 99.99999 | 36915 ft | 450 kts | 188° |
| 2026-04-21 06:53 | 26.49264 | 100.00001 | 36911 ft | 451 kts | 188° |
| 2026-04-21 06:54 | 26.42996 | 100.00000 | 36905 ft | 451 kts | 188° |
| 2026-04-21 06:54 | 26.37780 | 99.99999 | 36907 ft | 451 kts | 188° |
| 2026-04-21 06:55 | 26.31514 | 100.00000 | 36902 ft | 450 kts | 188° |
| 2026-04-21 06:55 | 26.25258 | 99.99999 | 36887 ft | 450 kts | 188° |
| 2026-04-21 06:56 | 26.18990 | 100.00000 | 36885 ft | 449 kts | 188° |
| 2026-04-21 06:56 | 26.11728 | 100.00000 | 36875 ft | 449 kts | 188° |
| 2026-04-21 06:57 | 26.06497 | 99.99999 | 36878 ft | 449 kts | 188° |
| 2026-04-21 06:57 | 26.00219 | 100.00297 | 36874 ft | 457 kts | 181° |
| 2026-04-21 06:58 | 25.93883 | 100.01793 | 36883 ft | 472 kts | 173° |
| 2026-04-21 06:58 | 25.87595 | 100.03699 | 36881 ft | 471 kts | 173° |
| 2026-04-21 06:59 | 25.81253 | 100.05595 | 36878 ft | 472 kts | 173° |
| 2026-04-21 06:59 | 25.74860 | 100.07499 | 36880 ft | 473 kts | 173° |
| 2026-04-21 07:00 | 25.68523 | 100.09391 | 36872 ft | 475 kts | 173° |
| 2026-04-21 07:00 | 25.62123 | 100.11297 | 36880 ft | 473 kts | 173° |
| 2026-04-21 07:01 | 25.55793 | 100.13172 | 36870 ft | 475 kts | 173° |
| 2026-04-21 07:01 | 25.46200 | 100.16015 | 36878 ft | 476 kts | 173° |
| 2026-04-21 07:02 | 25.39804 | 100.17909 | 36885 ft | 476 kts | 173° |
| 2026-04-21 07:02 | 25.33392 | 100.19806 | 36887 ft | 477 kts | 173° |
| 2026-04-21 07:03 | 25.26961 | 100.21704 | 36887 ft | 481 kts | 173° |
| 2026-04-21 07:03 | 25.20513 | 100.23609 | 36889 ft | 479 kts | 173° |
| 2026-04-21 07:04 | 25.14036 | 100.24904 | 36890 ft | 467 kts | 184° |
| 2026-04-21 07:04 | 25.07639 | 100.24771 | 36891 ft | 454 kts | 195° |
| 2026-04-21 07:05 | 25.01311 | 100.24877 | 36888 ft | 472 kts | 174° |
| 2026-04-21 07:05 | 24.98142 | 100.26007 | 36880 ft | 484 kts | 162° |
| 2026-04-21 07:05 | 24.95165 | 100.27845 | 36886 ft | 496 kts | 150° |
| 2026-04-21 07:06 | 24.92510 | 100.30325 | 36885 ft | 507 kts | 138° |
| 2026-04-21 07:06 | 24.90291 | 100.33364 | 36887 ft | 513 kts | 126° |
| 2026-04-21 07:06 | 24.88607 | 100.36846 | 36887 ft | 518 kts | 114° |
| 2026-04-21 07:06 | 24.87530 | 100.40646 | 36882 ft | 521 kts | 102° |
| 2026-04-21 07:07 | 24.87114 | 100.44596 | 36887 ft | 519 kts | 89° |
| 2026-04-21 07:07 | 24.87371 | 100.48541 | 36896 ft | 516 kts | 77° |
| 2026-04-21 07:07 | 24.88762 | 100.56278 | 36881 ft | 519 kts | 85° |
| 2026-04-21 07:08 | 24.88688 | 100.60250 | 36880 ft | 519 kts | 97° |
| 2026-04-21 07:08 | 24.88068 | 100.64164 | 36879 ft | 519 kts | 104° |
| 2026-04-21 07:08 | 24.86115 | 100.71829 | 36872 ft | 519 kts | 109° |
| 2026-04-21 07:09 | 24.83977 | 100.79377 | 36867 ft | 517 kts | 108° |
| 2026-04-21 07:09 | 24.81852 | 100.86944 | 36869 ft | 518 kts | 108° |
| 2026-04-21 07:10 | 24.79737 | 100.94531 | 36862 ft | 517 kts | 109° |
| 2026-04-21 07:10 | 24.77625 | 101.02098 | 36851 ft | 517 kts | 108° |
| 2026-04-21 07:11 | 24.75511 | 101.09654 | 36847 ft | 518 kts | 108° |
| 2026-04-21 07:11 | 24.73405 | 101.17167 | 36847 ft | 518 kts | 108° |
| 2026-04-21 07:12 | 24.71283 | 101.24724 | 36838 ft | 517 kts | 108° |
| 2026-04-21 07:12 | 24.69153 | 101.32290 | 36832 ft | 519 kts | 108° |
| 2026-04-21 07:13 | 24.67017 | 101.39865 | 36829 ft | 518 kts | 109° |
| 2026-04-21 07:13 | 24.64881 | 101.47419 | 36815 ft | 517 kts | 108° |
| 2026-04-21 07:14 | 24.63061 | 101.55083 | 36812 ft | 519 kts | 98° |
| 2026-04-21 07:14 | 24.62633 | 101.62983 | 36817 ft | 518 kts | 85° |
| 2026-04-21 07:15 | 24.63024 | 101.70824 | 36809 ft | 517 kts | 85° |
| 2026-04-21 07:15 | 24.63395 | 101.78726 | 36809 ft | 517 kts | 85° |
| 2026-04-21 07:16 | 24.63751 | 101.86600 | 36801 ft | 515 kts | 86° |
| 2026-04-21 07:16 | 24.64096 | 101.94463 | 36804 ft | 513 kts | 85° |
| 2026-04-21 07:17 | 24.64473 | 102.02348 | 36827 ft | 519 kts | 85° |
| 2026-04-21 07:17 | 24.64835 | 102.10259 | 36827 ft | 517 kts | 85° |
| 2026-04-21 07:18 | 24.65184 | 102.18112 | 36847 ft | 518 kts | 85° |
| 2026-04-21 07:18 | 24.65970 | 102.25922 | 36838 ft | 508 kts | 71° |
| 2026-04-21 07:19 | 24.67197 | 102.29533 | 36839 ft | 503 kts | 58° |
| 2026-04-21 07:19 | 24.69017 | 102.32789 | 36842 ft | 495 kts | 46° |
| 2026-04-21 07:19 | 24.73542 | 102.38428 | 36844 ft | 491 kts | 41° |
| 2026-04-21 07:20 | 24.78060 | 102.44072 | 36843 ft | 492 kts | 44° |
| 2026-04-21 07:20 | 24.82453 | 102.49872 | 36837 ft | 492 kts | 44° |
| 2026-04-21 07:21 | 24.84635 | 102.52785 | 36673 ft | 493 kts | 43° |
| 2026-04-21 07:21 | 24.86952 | 102.55475 | 36433 ft | 485 kts | 36° |
| 2026-04-21 07:21 | 24.89506 | 102.57854 | 36146 ft | 478 kts | 31° |
| 2026-04-21 07:21 | 24.92131 | 102.60104 | 35722 ft | 475 kts | 31° |
| 2026-04-21 07:22 | 24.94706 | 102.62328 | 35217 ft | 469 kts | 32° |
| 2026-04-21 07:22 | 24.97266 | 102.64544 | 34546 ft | 464 kts | 32° |
| 2026-04-21 07:22 | 24.99791 | 102.66731 | 33917 ft | 459 kts | 33° |
| 2026-04-21 07:22 | 25.02291 | 102.68895 | 33245 ft | 454 kts | 33° |
| 2026-04-21 07:23 | 25.04758 | 102.71034 | 32707 ft | 447 kts | 33° |
| 2026-04-21 07:23 | 25.07187 | 102.73141 | 32532 ft | 441 kts | 33° |
| 2026-04-21 07:23 | 25.09572 | 102.75211 | 32457 ft | 430 kts | 32° |
| 2026-04-21 07:23 | 25.11889 | 102.77225 | 32352 ft | 419 kts | 32° |
| 2026-04-21 07:24 | 25.14157 | 102.79195 | 32139 ft | 410 kts | 32° |
| 2026-04-21 07:24 | 25.16401 | 102.81113 | 31958 ft | 407 kts | 27° |
| 2026-04-21 07:24 | 25.18898 | 102.82476 | 31787 ft | 398 kts | 9° |
| 2026-04-21 07:24 | 25.21577 | 102.82956 | 31568 ft | 384 kts | 351° |
| 2026-04-21 07:25 | 25.24146 | 102.82544 | 31305 ft | 364 kts | 335° |
| 2026-04-21 07:25 | 25.26516 | 102.81623 | 30862 ft | 360 kts | 332° |
| 2026-04-21 07:25 | 25.28838 | 102.80618 | 30403 ft | 357 kts | 332° |
| 2026-04-21 07:25 | 25.31158 | 102.79639 | 29935 ft | 356 kts | 332° |
| 2026-04-21 07:26 | 25.33481 | 102.78701 | 29427 ft | 354 kts | 333° |
| 2026-04-21 07:26 | 25.35792 | 102.77798 | 28952 ft | 351 kts | 333° |
| 2026-04-21 07:26 | 25.38088 | 102.76933 | 28538 ft | 348 kts | 336° |
| 2026-04-21 07:26 | 25.40439 | 102.76325 | 28137 ft | 352 kts | 341° |
| 2026-04-21 07:27 | 25.42850 | 102.75807 | 27724 ft | 353 kts | 341° |
| 2026-04-21 07:27 | 25.45254 | 102.75282 | 27292 ft | 352 kts | 342° |
| 2026-04-21 07:27 | 25.47703 | 102.74986 | 26847 ft | 357 kts | 351° |
| 2026-04-21 07:27 | 25.50198 | 102.75085 | 26392 ft | 361 kts | 358° |
| 2026-04-21 07:28 | 25.52702 | 102.75349 | 25944 ft | 361 kts | 358° |
| 2026-04-21 07:28 | 25.55202 | 102.75642 | 25505 ft | 363 kts | 3° |
| 2026-04-21 07:28 | 25.57655 | 102.76309 | 25249 ft | 363 kts | 12° |
| 2026-04-21 07:28 | 25.60010 | 102.77315 | 24917 ft | 361 kts | 15° |
| 2026-04-21 07:29 | 25.62333 | 102.78332 | 24354 ft | 358 kts | 14° |
| 2026-04-21 07:29 | 25.64611 | 102.79487 | 23780 ft | 363 kts | 24° |
| 2026-04-21 07:29 | 25.66688 | 102.81031 | 23247 ft | 365 kts | 33° |
| 2026-04-21 07:29 | 25.68670 | 102.82766 | 22803 ft | 362 kts | 33° |
| 2026-04-21 07:30 | 25.70651 | 102.84497 | 22374 ft | 364 kts | 36° |
| 2026-04-21 07:30 | 25.72472 | 102.86524 | 21933 ft | 369 kts | 46° |
| 2026-04-21 07:30 | 25.73972 | 102.88789 | 21514 ft | 369 kts | 51° |
| 2026-04-21 07:30 | 25.75457 | 102.91098 | 21133 ft | 365 kts | 50° |
| 2026-04-21 07:31 | 25.76846 | 102.93452 | 20743 ft | 366 kts | 59° |
| 2026-04-21 07:31 | 25.77851 | 102.96042 | 20458 ft | 364 kts | 70° |
| 2026-04-21 07:31 | 25.78659 | 102.98688 | 20125 ft | 361 kts | 69° |
| 2026-04-21 07:31 | 25.79469 | 103.01293 | 19732 ft | 355 kts | 70° |
| 2026-04-21 07:32 | 25.80022 | 103.03957 | 19228 ft | 354 kts | 82° |
| 2026-04-21 07:32 | 25.80173 | 103.06667 | 18878 ft | 351 kts | 87° |
| 2026-04-21 07:32 | 25.80278 | 103.09371 | 18524 ft | 350 kts | 86° |
| 2026-04-21 07:32 | 25.80353 | 103.12069 | 18224 ft | 349 kts | 92° |
| 2026-04-21 07:33 | 25.80052 | 103.14716 | 18003 ft | 345 kts | 104° |
| 2026-04-21 07:33 | 25.79464 | 103.17295 | 17722 ft | 345 kts | 105° |
| 2026-04-21 07:33 | 25.78880 | 103.19881 | 17369 ft | 346 kts | 105° |
| 2026-04-21 07:33 | 25.78221 | 103.22401 | 17031 ft | 342 kts | 114° |
| 2026-04-21 07:34 | 25.77176 | 103.24742 | 16674 ft | 336 kts | 124° |
| 2026-04-21 07:34 | 25.75896 | 103.26913 | 16327 ft | 335 kts | 136° |
| 2026-04-21 07:34 | 25.74103 | 103.28475 | 15986 ft | 323 kts | 161° |
| 2026-04-21 07:34 | 25.72010 | 103.29103 | 15672 ft | 304 kts | 185° |
| 2026-04-21 07:35 | 25.70011 | 103.28736 | 15401 ft | 282 kts | 211° |
| 2026-04-21 07:35 | 25.68452 | 103.27552 | 15145 ft | 268 kts | 229° |
| 2026-04-21 07:35 | 25.67157 | 103.26086 | 14873 ft | 265 kts | 232° |
| 2026-04-21 07:35 | 25.65873 | 103.24635 | 14598 ft | 264 kts | 230° |
| 2026-04-21 07:36 | 25.64524 | 103.23245 | 14321 ft | 266 kts | 227° |
| 2026-04-21 07:36 | 25.63106 | 103.21904 | 14040 ft | 269 kts | 225° |
| 2026-04-21 07:36 | 25.61643 | 103.20591 | 13746 ft | 270 kts | 225° |
| 2026-04-21 07:36 | 25.60173 | 103.19307 | 13530 ft | 266 kts | 224° |
| 2026-04-21 07:37 | 25.58749 | 103.18081 | 13403 ft | 250 kts | 224° |
| 2026-04-21 07:37 | 25.57425 | 103.16943 | 13246 ft | 233 kts | 225° |
| 2026-04-21 07:37 | 25.56186 | 103.15864 | 12951 ft | 226 kts | 225° |
| 2026-04-21 07:37 | 25.54958 | 103.14784 | 12649 ft | 222 kts | 225° |
| 2026-04-21 07:38 | 25.53761 | 103.13735 | 12269 ft | 218 kts | 226° |
| 2026-04-21 07:38 | 25.52587 | 103.12706 | 11918 ft | 211 kts | 226° |
| 2026-04-21 07:38 | 25.51459 | 103.11729 | 11827 ft | 205 kts | 221° |
| 2026-04-21 07:38 | 25.50073 | 103.11090 | 11819 ft | 234 kts | 197° |
| 2026-04-21 07:39 | 25.48380 | 103.11230 | 11798 ft | 258 kts | 168° |
| 2026-04-21 07:39 | 25.46828 | 103.12316 | 11671 ft | 272 kts | 139° |
| 2026-04-21 07:39 | 25.45609 | 103.13928 | 11401 ft | 273 kts | 133° |
| 2026-04-21 07:39 | 25.44505 | 103.15590 | 11295 ft | 259 kts | 132° |
| 2026-04-21 07:40 | 25.43463 | 103.17086 | 11065 ft | 240 kts | 144° |
| 2026-04-21 07:40 | 25.42089 | 103.17897 | 10879 ft | 211 kts | 180° |
| 2026-04-21 07:40 | 25.40649 | 103.17804 | 10834 ft | 205 kts | 207° |
| 2026-04-21 07:40 | 25.39420 | 103.17157 | 10838 ft | 194 kts | 220° |
| 2026-04-21 07:41 | 25.38338 | 103.16307 | 10860 ft | 188 kts | 226° |
| 2026-04-21 07:41 | 25.37336 | 103.15438 | 10876 ft | 179 kts | 226° |
| 2026-04-21 07:41 | 25.36320 | 103.14542 | 10897 ft | 194 kts | 227° |
| 2026-04-21 07:41 | 25.35269 | 103.13608 | 10905 ft | 192 kts | 226° |
| 2026-04-21 07:42 | 25.34234 | 103.12701 | 10928 ft | 188 kts | 226° |
| 2026-04-21 07:42 | 25.33207 | 103.11801 | 10946 ft | 189 kts | 227° |
| 2026-04-21 07:42 | 25.32171 | 103.10891 | 10964 ft | 193 kts | 226° |
| 2026-04-21 07:42 | 25.31458 | 103.10265 | 10972 ft | 194 kts | 226° |
| 2026-04-21 07:43 | 25.30404 | 103.09344 | 10937 ft | 194 kts | 226° |
| 2026-04-21 07:43 | 25.29357 | 103.08426 | 10763 ft | 195 kts | 226° |
| 2026-04-21 07:43 | 25.28299 | 103.07499 | 10541 ft | 193 kts | 226° |
| 2026-04-21 07:43 | 25.27257 | 103.06588 | 10324 ft | 189 kts | 226° |
| 2026-04-21 07:44 | 25.26233 | 103.05691 | 10117 ft | 187 kts | 226° |
| 2026-04-21 07:44 | 25.25217 | 103.04801 | 9913 ft | 185 kts | 226° |
| 2026-04-21 07:44 | 25.24208 | 103.03918 | 9688 ft | 185 kts | 226° |
| 2026-04-21 07:44 | 25.23206 | 103.03040 | 9462 ft | 183 kts | 227° |
| 2026-04-21 07:45 | 25.22201 | 103.02161 | 9249 ft | 186 kts | 226° |
| 2026-04-21 07:45 | 25.21180 | 103.01266 | 8999 ft | 188 kts | 225° |
| 2026-04-21 07:45 | 25.20193 | 103.00408 | 8781 ft | 173 kts | 226° |
| 2026-04-21 07:45 | 25.19299 | 102.99626 | 8590 ft | 155 kts | 226° |
| 2026-04-21 07:46 | 25.18487 | 102.98915 | 8421 ft | 143 kts | 228° |
| 2026-04-21 07:46 | 25.17741 | 102.98265 | 8241 ft | 129 kts | 228° |
| 2026-04-21 07:46 | 25.17072 | 102.97678 | 8089 ft | 118 kts | 229° |
| 2026-04-21 07:46 | 25.16449 | 102.97131 | 7968 ft | 114 kts | 230° |
| 2026-04-21 07:47 | 25.15805 | 102.96559 | 7843 ft | 126 kts | 226° |
| 2026-04-21 07:47 | 25.15079 | 102.95927 | 7671 ft | 138 kts | 225° |
| 2026-04-21 07:47 | 25.14316 | 102.95265 | 7432 ft | 140 kts | 223° |
| 2026-04-21 07:47 | 25.13544 | 102.94586 | 7183 ft | 146 kts | 221° |
| 2026-04-21 07:48 | 25.12722 | 102.93871 | 6961 ft | 152 kts | 223° |
| 2026-04-21 07:48 | 25.12024 | 102.93251 | 6899 ft | 79 kts | 219° |
| 2026-04-21 07:48 | 25.11879 | 102.93125 | 6900 ft | 0 kts | 216° |
| 2026-04-21 07:49 | 25.11811 | 102.93071 | 6901 ft | 37 kts | 217° |
| 2026-04-21 07:49 | 25.11617 | 102.92924 | 6903 ft | 14 kts | 204° |
| 2026-04-21 07:49 | 25.11518 | 102.92888 | 6913 ft | 20 kts | 193° |
| 2026-04-21 07:49 | 25.11381 | 102.92858 | 6910 ft | 20 kts | 191° |
| 2026-04-21 07:50 | 25.11245 | 102.92821 | 6905 ft | 20 kts | 205° |
| 2026-04-21 07:50 | 25.11136 | 102.92732 | 6904 ft | 19 kts | 218° |
| 2026-04-21 07:50 | 25.11034 | 102.92643 | 6904 ft | 18 kts | 216° |
| 2026-04-21 07:50 | 25.10934 | 102.92556 | 6904 ft | 20 kts | 218° |
| 2026-04-21 07:51 | 25.10817 | 102.92455 | 6905 ft | 23 kts | 219° |
| 2026-04-21 07:51 | 25.10691 | 102.92346 | 6911 ft | 23 kts | 218° |
| 2026-04-21 07:51 | 25.10599 | 102.92266 | 6906 ft | 12 kts | 217° |
| 2026-04-21 07:51 | 25.10535 | 102.92278 | 6912 ft | 10 kts | 130° |
| 2026-04-21 07:52 | 25.10485 | 102.92342 | 6911 ft | 12 kts | 129° |
| 2026-04-21 07:52 | 25.10431 | 102.92418 | 6912 ft | 11 kts | 128° |
| 2026-04-21 07:52 | 25.10389 | 102.92476 | 6909 ft | 9 kts | 128° |
| 2026-04-21 07:52 | 25.10333 | 102.92486 | 6920 ft | 9 kts | 213° |
| 2026-04-21 07:53 | 25.10303 | 102.92458 | 6912 ft | 3 kts | 219° |
| 2026-04-21 07:53 | 25.10299 | 102.92454 | 6922 ft | 0 kts | 219° |